RYR3922 LIPE-GCRR
Flight info
| Callsign | RYR3922 |
|---|---|
| Flight time | N/A |
| Altitude | 19000 |
| Route | LUPOS M859 KALIK/N0461F350 DCT GOLAS DCT GEKBA DCT VAMTU DCT KOLON DCT GANGU DCT PADKO DCT DIVKO DCT NILDU DCT NENDA DCT BCN DCT RODRA DCT PEXOT DCT EBROX DCT LOTOS DCT TORDU DCT DIKUT DCT SOPET DCT VLC DCT SERRA DCT ASTRO DCT POBOS DCT XEBAR DCT YES DCT MAMIS DCT BAZAS DCT VIBAS DCT MGA DCT BRIKE DCT VJF L82 RUNAX UL82 IBALU UN857 TERTO |
| Aircraft | B38M/M-SDE1FGHILORVWXY/HB1 |
Departure
| Time | N/A |
|---|---|
| Airport | Bologna Guglielmo Marconi Airport (LIPE) |
Arrival
| Time | 2026-05-05 20:37 |
|---|---|
| Airport | César Manrique-Lanzarote Airport (GCRR) |
| Time | Latitude | Longitude | Altitude | Speed | Heading |
|---|---|---|---|---|---|
| 2026-05-05 18:39 | 37.20580 | -3.87139 | 34964 ft | 453 kts | 221° |
| 2026-05-05 18:39 | 37.16203 | -3.92750 | 34964 ft | 453 kts | 221° |
| 2026-05-05 18:40 | 37.11801 | -3.98385 | 34964 ft | 453 kts | 221° |
| 2026-05-05 18:40 | 37.07435 | -4.03967 | 34962 ft | 443 kts | 221° |
| 2026-05-05 18:41 | 37.03192 | -4.09383 | 34963 ft | 435 kts | 222° |
| 2026-05-05 18:41 | 36.98988 | -4.14740 | 34957 ft | 431 kts | 223° |
| 2026-05-05 18:42 | 36.94848 | -4.20004 | 34948 ft | 430 kts | 224° |
| 2026-05-05 18:42 | 36.91404 | -4.24378 | 34935 ft | 415 kts | 224° |
| 2026-05-05 18:43 | 36.86748 | -4.30283 | 34945 ft | 412 kts | 224° |
| 2026-05-05 18:43 | 36.82861 | -4.35528 | 34948 ft | 415 kts | 232° |
| 2026-05-05 18:44 | 36.80422 | -4.40705 | 34947 ft | 419 kts | 244° |
| 2026-05-05 18:44 | 36.77989 | -4.48667 | 34943 ft | 422 kts | 248° |
| 2026-05-05 18:45 | 36.76008 | -4.55485 | 34940 ft | 420 kts | 248° |
| 2026-05-05 18:45 | 36.74015 | -4.62319 | 34939 ft | 420 kts | 248° |
| 2026-05-05 18:46 | 36.72014 | -4.69162 | 34939 ft | 420 kts | 247° |
| 2026-05-05 18:46 | 36.70023 | -4.75943 | 34938 ft | 420 kts | 247° |
| 2026-05-05 18:47 | 36.68019 | -4.82750 | 34936 ft | 419 kts | 247° |
| 2026-05-05 18:47 | 36.66002 | -4.89593 | 34938 ft | 420 kts | 246° |
| 2026-05-05 18:48 | 36.63994 | -4.96379 | 34940 ft | 420 kts | 246° |
| 2026-05-05 18:48 | 36.61963 | -5.03227 | 34946 ft | 422 kts | 246° |
| 2026-05-05 18:49 | 36.59930 | -5.10070 | 34958 ft | 421 kts | 246° |
| 2026-05-05 18:49 | 36.57906 | -5.16861 | 34972 ft | 421 kts | 246° |
| 2026-05-05 18:50 | 36.55866 | -5.23691 | 34986 ft | 422 kts | 246° |
| 2026-05-05 18:50 | 36.53818 | -5.30533 | 34992 ft | 421 kts | 246° |
| 2026-05-05 18:51 | 36.51783 | -5.37317 | 34994 ft | 421 kts | 246° |
| 2026-05-05 18:51 | 36.49471 | -5.43961 | 35004 ft | 418 kts | 238° |
| 2026-05-05 18:52 | 36.46550 | -5.50162 | 34992 ft | 417 kts | 237° |
| 2026-05-05 18:52 | 36.43622 | -5.56336 | 34992 ft | 417 kts | 237° |
| 2026-05-05 18:53 | 36.40690 | -5.62512 | 34993 ft | 417 kts | 237° |
| 2026-05-05 18:53 | 36.38238 | -5.67671 | 34992 ft | 417 kts | 236° |
| 2026-05-05 18:54 | 36.34800 | -5.74895 | 34992 ft | 417 kts | 236° |
| 2026-05-05 18:54 | 36.31855 | -5.81071 | 34992 ft | 417 kts | 236° |
| 2026-05-05 18:55 | 36.29416 | -5.86180 | 34990 ft | 418 kts | 236° |
| 2026-05-05 18:55 | 36.25974 | -5.93379 | 34991 ft | 417 kts | 236° |
| 2026-05-05 18:56 | 36.23483 | -5.98511 | 34987 ft | 416 kts | 233° |
| 2026-05-05 18:56 | 36.19468 | -6.05150 | 34989 ft | 414 kts | 230° |
| 2026-05-05 18:57 | 36.16542 | -6.09839 | 34990 ft | 414 kts | 230° |
| 2026-05-05 18:57 | 36.12447 | -6.16436 | 34987 ft | 414 kts | 230° |
| 2026-05-05 18:58 | 36.08965 | -6.22059 | 34992 ft | 414 kts | 230° |
| 2026-05-05 18:58 | 36.05462 | -6.27716 | 34989 ft | 415 kts | 230° |
| 2026-05-05 18:59 | 36.02553 | -6.32407 | 34988 ft | 414 kts | 230° |
| 2026-05-05 18:59 | 35.98468 | -6.38994 | 34991 ft | 414 kts | 230° |
| 2026-05-05 19:00 | 35.95546 | -6.43699 | 34991 ft | 414 kts | 230° |
| 2026-05-05 19:00 | 35.91485 | -6.50228 | 34988 ft | 415 kts | 230° |
| 2026-05-05 19:01 | 35.87965 | -6.55879 | 34995 ft | 415 kts | 230° |
| 2026-05-05 19:01 | 35.84467 | -6.61487 | 34994 ft | 415 kts | 230° |
| 2026-05-05 19:02 | 35.80948 | -6.67121 | 34996 ft | 414 kts | 230° |
| 2026-05-05 19:02 | 35.77432 | -6.72735 | 34995 ft | 414 kts | 229° |
| 2026-05-05 19:03 | 35.73936 | -6.78310 | 34997 ft | 414 kts | 229° |
| 2026-05-05 19:03 | 35.70425 | -6.83898 | 34995 ft | 415 kts | 229° |
| 2026-05-05 19:04 | 35.67485 | -6.88572 | 34994 ft | 414 kts | 229° |
| 2026-05-05 19:04 | 35.63976 | -6.94143 | 34994 ft | 414 kts | 230° |
| 2026-05-05 19:05 | 35.59855 | -7.00673 | 34993 ft | 420 kts | 229° |
| 2026-05-05 19:05 | 35.56232 | -7.06403 | 34992 ft | 427 kts | 229° |
| 2026-05-05 19:06 | 35.52572 | -7.12182 | 34994 ft | 434 kts | 229° |
| 2026-05-05 19:06 | 35.48846 | -7.18058 | 34991 ft | 440 kts | 230° |
| 2026-05-05 19:07 | 35.45707 | -7.23001 | 34991 ft | 442 kts | 230° |
| 2026-05-05 19:07 | 35.41332 | -7.29882 | 34997 ft | 441 kts | 230° |
| 2026-05-05 19:08 | 35.37557 | -7.35806 | 35009 ft | 441 kts | 230° |
| 2026-05-05 19:08 | 35.33789 | -7.41709 | 35019 ft | 442 kts | 230° |
| 2026-05-05 19:09 | 35.30646 | -7.46628 | 35022 ft | 441 kts | 230° |
| 2026-05-05 19:09 | 35.26259 | -7.53482 | 35021 ft | 442 kts | 230° |
| 2026-05-05 19:10 | 35.22472 | -7.59389 | 35021 ft | 441 kts | 230° |
| 2026-05-05 19:10 | 35.18692 | -7.65273 | 35019 ft | 442 kts | 229° |
| 2026-05-05 19:11 | 35.15519 | -7.70206 | 35013 ft | 441 kts | 229° |
| 2026-05-05 19:11 | 35.11756 | -7.76049 | 35017 ft | 441 kts | 229° |
| 2026-05-05 19:12 | 35.07961 | -7.81932 | 35019 ft | 441 kts | 229° |
| 2026-05-05 19:12 | 35.03537 | -7.88778 | 35021 ft | 442 kts | 229° |
| 2026-05-05 19:13 | 34.99777 | -7.94588 | 35025 ft | 434 kts | 229° |
| 2026-05-05 19:13 | 34.96076 | -8.00300 | 35032 ft | 424 kts | 228° |
| 2026-05-05 19:14 | 34.92465 | -8.05863 | 35036 ft | 413 kts | 229° |
| 2026-05-05 19:14 | 34.88952 | -8.11265 | 35050 ft | 403 kts | 229° |
| 2026-05-05 19:15 | 34.86079 | -8.15675 | 35048 ft | 400 kts | 230° |
| 2026-05-05 19:15 | 34.82047 | -8.21855 | 35050 ft | 402 kts | 230° |
| 2026-05-05 19:16 | 34.78586 | -8.27150 | 35047 ft | 402 kts | 230° |
| 2026-05-05 19:16 | 34.75685 | -8.31583 | 35047 ft | 402 kts | 230° |
| 2026-05-05 19:17 | 34.72210 | -8.36887 | 35047 ft | 402 kts | 230° |
| 2026-05-05 19:17 | 34.68166 | -8.43050 | 35047 ft | 401 kts | 230° |
| 2026-05-05 19:18 | 34.65255 | -8.47478 | 35045 ft | 402 kts | 230° |
| 2026-05-05 19:18 | 34.61190 | -8.53655 | 35047 ft | 402 kts | 230° |
| 2026-05-05 19:19 | 34.58306 | -8.58030 | 35047 ft | 402 kts | 230° |
| 2026-05-05 19:19 | 34.54230 | -8.64204 | 35043 ft | 402 kts | 230° |
| 2026-05-05 19:20 | 34.50757 | -8.69455 | 35047 ft | 401 kts | 229° |
| 2026-05-05 19:20 | 34.47255 | -8.74736 | 35049 ft | 402 kts | 229° |
| 2026-05-05 19:21 | 34.43592 | -8.79782 | 35059 ft | 400 kts | 220° |
| 2026-05-05 19:21 | 34.39271 | -8.84016 | 35047 ft | 399 kts | 217° |
| 2026-05-05 19:22 | 34.34944 | -8.88153 | 35045 ft | 399 kts | 217° |
| 2026-05-05 19:22 | 34.30580 | -8.92328 | 35047 ft | 402 kts | 217° |
| 2026-05-05 19:23 | 34.26181 | -8.96535 | 35045 ft | 406 kts | 218° |
| 2026-05-05 19:23 | 34.21759 | -9.00762 | 35047 ft | 409 kts | 218° |
| 2026-05-05 19:24 | 34.18027 | -9.04326 | 35045 ft | 411 kts | 218° |
| 2026-05-05 19:24 | 34.12802 | -9.09307 | 35043 ft | 415 kts | 218° |
| 2026-05-05 19:25 | 34.08266 | -9.13627 | 35048 ft | 418 kts | 218° |
| 2026-05-05 19:25 | 34.03715 | -9.17955 | 35045 ft | 417 kts | 218° |
| 2026-05-05 19:26 | 33.99159 | -9.22284 | 35047 ft | 417 kts | 218° |
| 2026-05-05 19:26 | 33.94620 | -9.26592 | 35044 ft | 417 kts | 218° |
| 2026-05-05 19:27 | 33.90099 | -9.30877 | 35045 ft | 417 kts | 218° |
| 2026-05-05 19:27 | 33.85547 | -9.35185 | 35046 ft | 417 kts | 218° |
| 2026-05-05 19:28 | 33.80989 | -9.39494 | 35047 ft | 417 kts | 218° |
| 2026-05-05 19:28 | 33.76444 | -9.43784 | 35047 ft | 417 kts | 218° |
| 2026-05-05 19:29 | 33.71909 | -9.48062 | 35045 ft | 416 kts | 218° |
| 2026-05-05 19:29 | 33.68131 | -9.51619 | 35044 ft | 417 kts | 218° |
| 2026-05-05 19:30 | 33.62807 | -9.56624 | 35048 ft | 417 kts | 218° |
| 2026-05-05 19:30 | 33.59026 | -9.60176 | 35047 ft | 416 kts | 218° |
| 2026-05-05 19:31 | 33.53716 | -9.65156 | 35039 ft | 418 kts | 217° |
| 2026-05-05 19:31 | 33.49158 | -9.69423 | 35038 ft | 417 kts | 217° |
| 2026-05-05 19:32 | 33.44591 | -9.73691 | 35031 ft | 416 kts | 217° |
| 2026-05-05 19:32 | 33.40019 | -9.77958 | 35026 ft | 417 kts | 217° |
| 2026-05-05 19:33 | 33.36238 | -9.81484 | 35021 ft | 417 kts | 217° |
| 2026-05-05 19:33 | 33.30906 | -9.86449 | 35018 ft | 418 kts | 217° |
| 2026-05-05 19:34 | 33.26320 | -9.90712 | 35018 ft | 417 kts | 217° |
| 2026-05-05 19:35 | 33.19478 | -9.97064 | 35021 ft | 417 kts | 217° |
| 2026-05-05 19:35 | 33.14890 | -10.01313 | 35022 ft | 421 kts | 217° |
| 2026-05-05 19:36 | 33.10207 | -10.05648 | 35020 ft | 434 kts | 217° |
| 2026-05-05 19:36 | 33.05472 | -10.10024 | 35017 ft | 431 kts | 217° |
| 2026-05-05 19:37 | 33.01528 | -10.13665 | 35019 ft | 428 kts | 217° |
| 2026-05-05 19:37 | 32.96857 | -10.17967 | 35017 ft | 426 kts | 217° |
| 2026-05-05 19:38 | 32.91414 | -10.22972 | 35015 ft | 425 kts | 217° |
| 2026-05-05 19:38 | 32.87524 | -10.26544 | 35020 ft | 426 kts | 217° |
| 2026-05-05 19:39 | 32.82064 | -10.31549 | 35017 ft | 425 kts | 217° |
| 2026-05-05 19:39 | 32.77374 | -10.35844 | 35022 ft | 425 kts | 217° |
| 2026-05-05 19:40 | 32.73504 | -10.39382 | 35023 ft | 426 kts | 217° |
| 2026-05-05 19:40 | 32.68058 | -10.44354 | 35020 ft | 424 kts | 217° |
| 2026-05-05 19:41 | 32.63362 | -10.48638 | 35021 ft | 426 kts | 217° |
| 2026-05-05 19:41 | 32.58696 | -10.52887 | 35023 ft | 425 kts | 217° |
| 2026-05-05 19:42 | 32.54001 | -10.57157 | 35021 ft | 426 kts | 217° |
| 2026-05-05 19:42 | 32.50118 | -10.60685 | 35021 ft | 426 kts | 217° |
| 2026-05-05 19:43 | 32.44632 | -10.65661 | 35020 ft | 425 kts | 216° |
| 2026-05-05 19:43 | 32.40739 | -10.69184 | 35022 ft | 425 kts | 216° |
| 2026-05-05 19:44 | 32.35278 | -10.74120 | 35023 ft | 426 kts | 216° |
| 2026-05-05 19:44 | 32.31358 | -10.77659 | 35020 ft | 425 kts | 216° |
| 2026-05-05 19:45 | 32.25886 | -10.82592 | 35021 ft | 426 kts | 216° |
| 2026-05-05 19:45 | 32.21179 | -10.86832 | 35018 ft | 428 kts | 216° |
| 2026-05-05 19:46 | 32.16456 | -10.91081 | 35017 ft | 429 kts | 216° |
| 2026-05-05 19:46 | 32.11718 | -10.95335 | 35019 ft | 429 kts | 217° |
| 2026-05-05 19:47 | 32.06981 | -10.99584 | 35019 ft | 431 kts | 216° |
| 2026-05-05 19:47 | 32.02208 | -11.03859 | 35020 ft | 432 kts | 217° |
| 2026-05-05 19:48 | 31.97416 | -11.08148 | 35016 ft | 433 kts | 217° |
| 2026-05-05 19:48 | 31.92640 | -11.12416 | 35020 ft | 433 kts | 217° |
| 2026-05-05 19:49 | 31.87865 | -11.16677 | 35020 ft | 433 kts | 217° |
| 2026-05-05 19:49 | 31.83098 | -11.20927 | 35022 ft | 433 kts | 217° |
| 2026-05-05 19:50 | 31.78307 | -11.25191 | 35018 ft | 433 kts | 217° |
| 2026-05-05 19:50 | 31.74298 | -11.28757 | 35023 ft | 433 kts | 217° |
| 2026-05-05 19:51 | 31.69533 | -11.33007 | 35020 ft | 433 kts | 217° |
| 2026-05-05 19:51 | 31.63932 | -11.37998 | 35020 ft | 432 kts | 217° |
| 2026-05-05 19:52 | 31.59963 | -11.41530 | 35018 ft | 432 kts | 217° |
| 2026-05-05 19:52 | 31.54372 | -11.46500 | 35021 ft | 432 kts | 217° |
| 2026-05-05 19:53 | 31.49597 | -11.50737 | 35018 ft | 433 kts | 217° |
| 2026-05-05 19:53 | 31.44811 | -11.54979 | 35018 ft | 432 kts | 217° |
| 2026-05-05 19:54 | 31.40048 | -11.59194 | 35018 ft | 433 kts | 217° |
| 2026-05-05 19:54 | 31.35234 | -11.63448 | 35020 ft | 433 kts | 217° |
| 2026-05-05 19:55 | 31.30453 | -11.67668 | 35018 ft | 433 kts | 216° |
| 2026-05-05 19:55 | 31.25671 | -11.71881 | 35019 ft | 433 kts | 216° |
| 2026-05-05 19:56 | 31.20859 | -11.76116 | 35021 ft | 434 kts | 216° |
| 2026-05-05 19:56 | 31.16056 | -11.80337 | 35017 ft | 432 kts | 216° |
| 2026-05-05 19:57 | 31.12061 | -11.83845 | 35018 ft | 433 kts | 216° |
| 2026-05-05 19:57 | 31.06457 | -11.88758 | 35018 ft | 432 kts | 216° |
| 2026-05-05 19:58 | 31.01688 | -11.92935 | 35017 ft | 432 kts | 216° |
| 2026-05-05 19:58 | 30.96903 | -11.97121 | 35017 ft | 430 kts | 215° |
| 2026-05-05 19:59 | 30.92151 | -12.01272 | 35016 ft | 429 kts | 214° |
| 2026-05-05 19:59 | 30.87342 | -12.05468 | 35024 ft | 432 kts | 214° |
| 2026-05-05 20:00 | 30.82567 | -12.09629 | 35022 ft | 431 kts | 214° |
| 2026-05-05 20:00 | 30.77780 | -12.13796 | 35023 ft | 431 kts | 214° |
| 2026-05-05 20:01 | 30.72986 | -12.17961 | 35023 ft | 432 kts | 214° |
| 2026-05-05 20:01 | 30.68194 | -12.22120 | 35022 ft | 431 kts | 214° |
| 2026-05-05 20:02 | 30.63401 | -12.26277 | 35020 ft | 431 kts | 213° |
| 2026-05-05 20:02 | 30.58608 | -12.30426 | 34985 ft | 432 kts | 214° |
| 2026-05-05 20:03 | 30.53797 | -12.34587 | 34694 ft | 432 kts | 214° |
| 2026-05-05 20:03 | 30.52198 | -12.35969 | 34512 ft | 433 kts | 214° |
| 2026-05-05 20:03 | 30.48980 | -12.38747 | 33941 ft | 435 kts | 213° |
| 2026-05-05 20:03 | 30.47393 | -12.40115 | 33620 ft | 432 kts | 214° |
| 2026-05-05 20:04 | 30.44196 | -12.42866 | 33047 ft | 425 kts | 214° |
| 2026-05-05 20:04 | 30.42634 | -12.44210 | 32764 ft | 422 kts | 214° |
| 2026-05-05 20:04 | 30.39503 | -12.46900 | 32196 ft | 418 kts | 214° |
| 2026-05-05 20:04 | 30.37180 | -12.48893 | 31772 ft | 416 kts | 213° |
| 2026-05-05 20:05 | 30.34888 | -12.50859 | 31350 ft | 414 kts | 213° |
| 2026-05-05 20:05 | 30.32599 | -12.52822 | 30952 ft | 411 kts | 213° |
| 2026-05-05 20:05 | 30.30294 | -12.54796 | 30520 ft | 409 kts | 213° |
| 2026-05-05 20:05 | 30.28046 | -12.56722 | 30098 ft | 406 kts | 213° |
| 2026-05-05 20:06 | 30.26528 | -12.58021 | 29811 ft | 404 kts | 213° |
| 2026-05-05 20:06 | 30.23554 | -12.60565 | 29243 ft | 399 kts | 213° |
| 2026-05-05 20:06 | 30.21332 | -12.62465 | 28815 ft | 397 kts | 213° |
| 2026-05-05 20:06 | 30.19120 | -12.64353 | 28388 ft | 394 kts | 213° |
| 2026-05-05 20:07 | 30.16921 | -12.66231 | 27957 ft | 392 kts | 213° |
| 2026-05-05 20:07 | 30.14747 | -12.68084 | 27528 ft | 389 kts | 213° |
| 2026-05-05 20:07 | 30.13316 | -12.69304 | 27242 ft | 386 kts | 213° |
| 2026-05-05 20:07 | 30.10511 | -12.71796 | 26670 ft | 384 kts | 219° |
| 2026-05-05 20:08 | 30.08615 | -12.74010 | 26246 ft | 385 kts | 224° |
| 2026-05-05 20:08 | 30.07431 | -12.75516 | 25961 ft | 384 kts | 224° |
| 2026-05-05 20:08 | 30.05087 | -12.78542 | 25389 ft | 381 kts | 224° |
| 2026-05-05 20:08 | 30.03331 | -12.80813 | 24957 ft | 378 kts | 224° |
| 2026-05-05 20:09 | 30.01597 | -12.83054 | 24526 ft | 375 kts | 224° |
| 2026-05-05 20:09 | 30.00440 | -12.84549 | 24237 ft | 373 kts | 224° |
| 2026-05-05 20:09 | 29.98154 | -12.87497 | 23662 ft | 370 kts | 224° |
| 2026-05-05 20:09 | 29.96443 | -12.89703 | 23227 ft | 366 kts | 224° |
| 2026-05-05 20:10 | 29.94758 | -12.91873 | 22797 ft | 364 kts | 224° |
| 2026-05-05 20:10 | 29.93075 | -12.94039 | 22364 ft | 362 kts | 224° |
| 2026-05-05 20:10 | 29.91351 | -12.96124 | 21931 ft | 358 kts | 218° |
| 2026-05-05 20:10 | 29.89365 | -12.97785 | 21516 ft | 352 kts | 207° |
| 2026-05-05 20:11 | 29.87207 | -12.99020 | 21107 ft | 350 kts | 199° |
| 2026-05-05 20:11 | 29.84915 | -13.00012 | 20684 ft | 348 kts | 197° |
| 2026-05-05 20:11 | 29.82655 | -13.00911 | 20268 ft | 346 kts | 196° |
| 2026-05-05 20:11 | 29.80392 | -13.01796 | 20013 ft | 343 kts | 196° |
| 2026-05-05 20:12 | 29.78142 | -13.02672 | 19767 ft | 344 kts | 196° |
| 2026-05-05 20:12 | 29.75876 | -13.03552 | 19520 ft | 345 kts | 195° |
| 2026-05-05 20:12 | 29.73622 | -13.04427 | 19227 ft | 345 kts | 195° |
| 2026-05-05 20:12 | 29.71338 | -13.05313 | 18935 ft | 343 kts | 195° |
| 2026-05-05 20:13 | 29.69083 | -13.06188 | 18640 ft | 342 kts | 195° |
| 2026-05-05 20:13 | 29.66854 | -13.07051 | 18344 ft | 342 kts | 195° |
| 2026-05-05 20:13 | 29.64619 | -13.07919 | 18045 ft | 339 kts | 195° |
| 2026-05-05 20:13 | 29.62386 | -13.08788 | 17743 ft | 337 kts | 195° |
| 2026-05-05 20:14 | 29.60199 | -13.09639 | 17445 ft | 334 kts | 195° |
| 2026-05-05 20:14 | 29.58023 | -13.10482 | 17143 ft | 329 kts | 195° |
| 2026-05-05 20:14 | 29.55821 | -13.11330 | 16856 ft | 339 kts | 195° |
| 2026-05-05 20:14 | 29.54318 | -13.11909 | 16653 ft | 340 kts | 195° |
| 2026-05-05 20:15 | 29.51358 | -13.13050 | 16254 ft | 337 kts | 195° |
| 2026-05-05 20:15 | 29.49873 | -13.13623 | 16053 ft | 336 kts | 195° |
| 2026-05-05 20:15 | 29.46929 | -13.14757 | 15677 ft | 335 kts | 195° |
| 2026-05-05 20:15 | 29.44742 | -13.15599 | 15430 ft | 335 kts | 195° |
| 2026-05-05 20:16 | 29.42527 | -13.16451 | 15179 ft | 335 kts | 196° |
| 2026-05-05 20:16 | 29.40346 | -13.17289 | 14932 ft | 334 kts | 196° |
| 2026-05-05 20:16 | 29.38153 | -13.18132 | 14683 ft | 334 kts | 196° |
| 2026-05-05 20:16 | 29.35950 | -13.18978 | 14433 ft | 333 kts | 195° |
| 2026-05-05 20:17 | 29.33750 | -13.19738 | 14184 ft | 332 kts | 193° |
| 2026-05-05 20:17 | 29.31531 | -13.20448 | 13934 ft | 331 kts | 193° |
| 2026-05-05 20:17 | 29.29313 | -13.21152 | 13682 ft | 329 kts | 193° |
| 2026-05-05 20:17 | 29.27107 | -13.21852 | 13432 ft | 328 kts | 193° |
| 2026-05-05 20:18 | 29.24935 | -13.22539 | 13184 ft | 327 kts | 193° |
| 2026-05-05 20:18 | 29.22752 | -13.23240 | 12935 ft | 326 kts | 194° |
| 2026-05-05 20:18 | 29.20576 | -13.23966 | 12684 ft | 325 kts | 194° |
| 2026-05-05 20:18 | 29.18429 | -13.24688 | 12436 ft | 323 kts | 194° |
| 2026-05-05 20:19 | 29.16277 | -13.25412 | 12184 ft | 321 kts | 194° |
| 2026-05-05 20:19 | 29.14151 | -13.26127 | 11929 ft | 315 kts | 194° |
| 2026-05-05 20:19 | 29.12082 | -13.26824 | 11674 ft | 308 kts | 194° |
| 2026-05-05 20:19 | 29.10062 | -13.27504 | 11417 ft | 299 kts | 194° |
| 2026-05-05 20:20 | 29.08063 | -13.28177 | 11167 ft | 295 kts | 194° |
| 2026-05-05 20:20 | 29.06129 | -13.28827 | 10920 ft | 292 kts | 194° |
| 2026-05-05 20:20 | 29.04171 | -13.29484 | 10669 ft | 291 kts | 194° |
| 2026-05-05 20:20 | 29.02250 | -13.30129 | 10421 ft | 290 kts | 194° |
| 2026-05-05 20:21 | 29.00970 | -13.30558 | 10256 ft | 289 kts | 194° |
| 2026-05-05 20:21 | 28.98397 | -13.31421 | 9921 ft | 288 kts | 194° |
| 2026-05-05 20:21 | 28.96483 | -13.32108 | 9669 ft | 287 kts | 195° |
| 2026-05-05 20:21 | 28.94618 | -13.32812 | 9422 ft | 286 kts | 195° |
| 2026-05-05 20:22 | 28.93360 | -13.33289 | 9255 ft | 286 kts | 195° |
| 2026-05-05 20:22 | 28.90782 | -13.33785 | 8926 ft | 278 kts | 176° |
| 2026-05-05 20:22 | 28.88900 | -13.33477 | 8685 ft | 271 kts | 161° |
| 2026-05-05 20:22 | 28.87170 | -13.32710 | 8457 ft | 266 kts | 153° |
| 2026-05-05 20:23 | 28.85511 | -13.31810 | 8239 ft | 260 kts | 152° |
| 2026-05-05 20:23 | 28.83912 | -13.30918 | 8022 ft | 255 kts | 151° |
| 2026-05-05 20:23 | 28.82335 | -13.30035 | 7809 ft | 250 kts | 152° |
| 2026-05-05 20:23 | 28.80787 | -13.29169 | 7600 ft | 248 kts | 151° |
| 2026-05-05 20:24 | 28.79257 | -13.28314 | 7389 ft | 246 kts | 153° |
| 2026-05-05 20:24 | 28.77614 | -13.27739 | 7170 ft | 246 kts | 169° |
| 2026-05-05 20:24 | 28.75923 | -13.27679 | 6973 ft | 243 kts | 179° |
| 2026-05-05 20:24 | 28.74242 | -13.27802 | 6763 ft | 243 kts | 182° |
| 2026-05-05 20:25 | 28.73135 | -13.27908 | 6660 ft | 240 kts | 181° |
| 2026-05-05 20:25 | 28.71492 | -13.28027 | 6452 ft | 235 kts | 180° |
| 2026-05-05 20:25 | 28.69315 | -13.28154 | 6176 ft | 240 kts | 180° |
| 2026-05-05 20:25 | 28.67697 | -13.28611 | 5951 ft | 243 kts | 209° |
| 2026-05-05 20:26 | 28.66533 | -13.29987 | 5782 ft | 248 kts | 241° |
| 2026-05-05 20:26 | 28.66019 | -13.31833 | 5589 ft | 248 kts | 265° |
| 2026-05-05 20:26 | 28.66071 | -13.33154 | 5450 ft | 244 kts | 284° |
| 2026-05-05 20:26 | 28.66672 | -13.35506 | 5199 ft | 225 kts | 290° |
| 2026-05-05 20:27 | 28.67135 | -13.37153 | 5044 ft | 211 kts | 291° |
| 2026-05-05 20:27 | 28.67342 | -13.37891 | 4970 ft | 206 kts | 291° |
| 2026-05-05 20:27 | 28.67910 | -13.39929 | 4786 ft | 204 kts | 291° |
| 2026-05-05 20:27 | 28.68334 | -13.41460 | 4662 ft | 206 kts | 291° |
| 2026-05-05 20:28 | 28.68778 | -13.43064 | 4541 ft | 217 kts | 291° |
| 2026-05-05 20:28 | 28.69296 | -13.44657 | 4399 ft | 214 kts | 295° |
| 2026-05-05 20:28 | 28.69852 | -13.46214 | 4263 ft | 210 kts | 296° |
| 2026-05-05 20:28 | 28.70406 | -13.47759 | 4132 ft | 215 kts | 295° |
| 2026-05-05 20:29 | 28.70963 | -13.49326 | 3992 ft | 210 kts | 295° |
| 2026-05-05 20:29 | 28.71504 | -13.50857 | 3852 ft | 207 kts | 296° |
| 2026-05-05 20:29 | 28.72043 | -13.52384 | 3722 ft | 207 kts | 296° |
| 2026-05-05 20:29 | 28.72584 | -13.53918 | 3591 ft | 210 kts | 295° |
| 2026-05-05 20:30 | 28.73115 | -13.55434 | 3463 ft | 203 kts | 296° |
| 2026-05-05 20:30 | 28.73470 | -13.56447 | 3380 ft | 209 kts | 295° |
| 2026-05-05 20:30 | 28.74006 | -13.57973 | 3262 ft | 212 kts | 295° |
| 2026-05-05 20:30 | 28.74723 | -13.60023 | 3091 ft | 202 kts | 295° |
| 2026-05-05 20:31 | 28.75243 | -13.61515 | 2965 ft | 198 kts | 296° |
| 2026-05-05 20:31 | 28.75580 | -13.62485 | 2893 ft | 194 kts | 295° |
| 2026-05-05 20:31 | 28.76220 | -13.64327 | 2697 ft | 179 kts | 296° |
| 2026-05-05 20:31 | 28.76677 | -13.65640 | 2575 ft | 175 kts | 296° |
| 2026-05-05 20:32 | 28.76970 | -13.66485 | 2495 ft | 169 kts | 296° |
| 2026-05-05 20:32 | 28.77795 | -13.67981 | 2524 ft | 168 kts | 327° |
| 2026-05-05 20:32 | 28.78807 | -13.68488 | 2502 ft | 150 kts | 353° |
| 2026-05-05 20:32 | 28.79837 | -13.68519 | 2539 ft | 150 kts | 11° |
| 2026-05-05 20:33 | 28.80810 | -13.68194 | 2490 ft | 143 kts | 27° |
| 2026-05-05 20:33 | 28.81719 | -13.67698 | 2494 ft | 146 kts | 26° |
| 2026-05-05 20:33 | 28.82324 | -13.67370 | 2497 ft | 144 kts | 26° |
| 2026-05-05 20:33 | 28.83545 | -13.66696 | 2420 ft | 146 kts | 25° |
| 2026-05-05 20:34 | 28.84452 | -13.66189 | 2199 ft | 144 kts | 26° |
| 2026-05-05 20:34 | 28.85051 | -13.65851 | 2065 ft | 145 kts | 28° |
| 2026-05-05 20:34 | 28.86241 | -13.65175 | 1798 ft | 145 kts | 27° |
| 2026-05-05 20:34 | 28.87140 | -13.64668 | 1576 ft | 143 kts | 27° |
| 2026-05-05 20:35 | 28.88004 | -13.64175 | 1332 ft | 135 kts | 26° |
| 2026-05-05 20:35 | 28.88849 | -13.63702 | 984 ft | 139 kts | 24° |
| 2026-05-05 20:35 | 28.89707 | -13.63278 | 888 ft | 131 kts | 25° |
| 2026-05-05 20:35 | 28.90546 | -13.62815 | 766 ft | 136 kts | 26° |
| 2026-05-05 20:36 | 28.91406 | -13.62321 | 611 ft | 140 kts | 27° |
| 2026-05-05 20:36 | 28.92255 | -13.61843 | 425 ft | 135 kts | 27° |
| 2026-05-05 20:36 | 28.93085 | -13.61369 | 204 ft | 132 kts | 26° |
| 2026-05-05 20:36 | 28.93637 | -13.61049 | 65 ft | 136 kts | 26° |
| 2026-05-05 20:37 | 28.94590 | -13.60492 | 45 ft | 76 kts | 27° |
| 2026-05-05 20:37 | 28.94823 | -13.60361 | 51 ft | 39 kts | 26° |